Time;durP1;ratioP1;P1;durP2;ratioP2;P2;SDS_P1;SDS_P2;PMS_P1;PMS_P2;Temp;Humidity;BMP_temperature;BMP_pressure;BME280_temperature;BME280_humidity;BME280_pressure;Samples;Min_cycle;Max_cycle;Signal;HPM_P1;HPM_P2
2022/10/16 00:02:22;;;;;;;16.05;12.55;;;13.10;99.90;;;;;;2603825;54;20030;31
2022/10/16 00:04:57;;;;;;;18.70;13.75;;;13.20;99.90;;;;;;2702208;39;20508;31
2022/10/16 00:07:31;;;;;;;15.60;12.05;;;13.10;99.90;;;;;;2622146;46;20061;31
2022/10/16 00:10:13;;;;;;;16.10;13.30;;;13.10;99.90;;;;;;2603634;54;20026;31
2022/10/16 00:12:48;;;;;;;15.43;12.40;;;13.10;99.90;;;;;;2602786;54;20026;31
2022/10/16 00:15:26;;;;;;;19.88;14.82;;;13.10;99.90;;;;;;2603545;54;20096;31
2022/10/16 00:18:00;;;;;;;16.80;12.48;;;13.00;99.90;;;;;;2603574;54;20050;31
2022/10/16 00:20:36;;;;;;;16.52;13.30;;;13.20;99.90;;;;;;2622162;46;20030;31
2022/10/16 00:23:12;;;;;;;15.10;12.15;;;13.00;99.90;;;;;;2603555;54;20026;31
2022/10/16 00:25:47;;;;;;;15.25;12.40;;;13.20;99.90;;;;;;2603434;54;20035;31
2022/10/16 00:28:22;;;;;;;14.88;12.05;;;13.00;99.90;;;;;;2603615;54;20931;31
2022/10/16 00:31:01;;;;;;;16.23;11.35;;;13.10;99.90;;;;;;2602782;54;20863;31
2022/10/16 00:33:36;;;;;;;17.88;12.10;;;13.00;99.90;;;;;;2603716;54;19980;31
2022/10/16 00:36:12;;;;;;;12.75;10.35;;;12.90;99.90;;;;;;2622097;46;20030;31
2022/10/16 00:38:47;;;;;;;15.70;11.23;;;13.00;99.90;;;;;;2622246;46;20034;31
2022/10/16 00:41:23;;;;;;;13.45;11.25;;;13.00;99.90;;;;;;2603582;54;20031;31
2022/10/16 00:43:58;;;;;;;14.48;12.02;;;12.90;99.90;;;;;;2603550;54;20112;31
2022/10/16 00:46:38;;;;;;;15.10;12.10;;;13.00;99.90;;;;;;2603427;54;20037;31
2022/10/16 00:49:15;;;;;;;15.13;11.82;;;13.30;99.90;;;;;;2603591;54;19942;31
2022/10/16 00:51:50;;;;;;;12.95;11.13;;;13.00;99.90;;;;;;2622132;46;20037;31
2022/10/16 00:54:25;;;;;;;13.20;11.20;;;12.90;99.90;;;;;;2603677;54;20031;31
2022/10/16 00:57:03;;;;;;;16.15;12.45;;;12.90;99.90;;;;;;2603454;54;20253;31
2022/10/16 00:59:41;;;;;;;14.30;11.00;;;13.20;99.90;;;;;;2603644;54;20877;31
2022/10/16 01:02:21;;;;;;;14.52;10.75;;;12.90;99.90;;;;;;2603564;54;20037;31
2022/10/16 01:04:56;;;;;;;14.15;11.27;;;13.00;99.90;;;;;;2621721;46;20089;31
2022/10/16 01:07:37;;;;;;;18.40;11.88;;;13.00;99.90;;;;;;2621897;46;20030;31
2022/10/16 01:10:16;;;;;;;12.85;10.00;;;13.00;99.90;;;;;;2603690;54;20875;31
2022/10/16 01:12:53;;;;;;;12.55;9.52;;;13.00;99.90;;;;;;2602762;54;20022;31
2022/10/16 01:15:29;;;;;;;11.57;9.45;;;13.20;99.90;;;;;;2621517;46;20156;31
2022/10/16 01:18:11;;;;;;;11.25;9.20;;;12.90;99.90;;;;;;2603249;54;20034;31
2022/10/16 01:20:45;;;;;;;10.40;8.20;;;13.00;99.90;;;;;;2603447;54;20051;31
2022/10/16 01:23:30;;;;;;;13.95;9.20;;;13.00;99.90;;;;;;2622326;46;20026;31
2022/10/16 01:26:30;;;;;;;9.80;7.95;;;13.00;99.90;;;;;;2603438;54;20032;31
2022/10/16 01:29:10;;;;;;;11.90;8.73;;;13.10;99.90;;;;;;2603134;54;20856;31
2022/10/16 01:31:45;;;;;;;11.60;7.80;;;13.10;99.90;;;;;;2603202;54;20828;31
2022/10/16 01:34:23;;;;;;;10.27;7.75;;;13.10;99.90;;;;;;2603486;54;20094;31
2022/10/16 01:36:59;;;;;;;11.87;8.33;;;13.40;99.90;;;;;;2621789;46;20113;31
2022/10/16 01:39:36;;;;;;;12.05;8.20;;;13.10;99.90;;;;;;2603449;54;20923;31
2022/10/16 01:42:14;;;;;;;11.30;7.85;;;13.10;99.90;;;;;;2603487;54;20916;31
2022/10/16 01:44:51;;;;;;;8.80;7.55;;;13.10;99.90;;;;;;2603504;54;20038;31
2022/10/16 01:47:28;;;;;;;9.30;6.85;;;13.40;99.90;;;;;;2603541;54;20891;31
2022/10/16 01:50:04;;;;;;;9.50;6.70;;;13.20;99.90;;;;;;2603496;54;20030;31
2022/10/16 01:52:40;;;;;;;;;;;13.10;99.90;;;;;;2603468;54;20140;31
2022/10/16 01:55:19;;;;;;;10.90;6.75;;;13.10;99.90;;;;;;2621907;46;20878;31
2022/10/16 01:57:54;;;;;;;10.70;7.35;;;13.20;99.90;;;;;;2603282;54;20052;31
2022/10/16 02:00:33;;;;;;;7.45;6.60;;;13.20;99.90;;;;;;2622075;46;20137;31
2022/10/16 02:03:09;;;;;;;8.90;6.85;;;13.20;99.90;;;;;;2621946;46;20057;31
2022/10/16 02:05:45;;;;;;;9.32;6.60;;;13.20;99.90;;;;;;2603213;54;20027;31
2022/10/16 02:08:19;;;;;;;9.57;6.35;;;13.20;99.90;;;;;;2622109;46;20859;31
2022/10/16 02:10:55;;;;;;;7.60;5.68;;;13.20;99.90;;;;;;2603289;54;20030;31
2022/10/16 02:13:32;;;;;;;8.10;6.10;;;13.20;99.90;;;;;;2621940;46;20913;31
2022/10/16 02:16:13;;;;;;;9.65;6.70;;;13.20;99.90;;;;;;2603132;54;20038;31
2022/10/16 02:18:50;;;;;;;7.55;5.57;;;13.30;99.90;;;;;;2603309;54;20030;31
2022/10/16 02:21:28;;;;;;;10.05;6.40;;;13.30;99.90;;;;;;2621725;47;20030;31
2022/10/16 02:24:05;;;;;;;9.18;6.50;;;13.30;99.90;;;;;;2602520;54;20789;31
2022/10/16 02:26:44;;;;;;;7.45;5.90;;;13.30;99.90;;;;;;2621273;46;20841;31
2022/10/16 02:29:21;;;;;;;11.17;6.20;;;13.60;99.90;;;;;;2603307;54;20109;31
2022/10/16 02:32:02;;;;;;;7.65;5.75;;;13.30;99.90;;;;;;2603171;54;20062;31
2022/10/16 02:34:37;;;;;;;7.90;5.75;;;13.30;99.90;;;;;;2603315;54;19946;31
2022/10/16 02:37:12;;;;;;;8.15;6.95;;;13.40;99.90;;;;;;2602967;54;20033;31
2022/10/16 02:39:47;;;;;;;11.45;6.50;;;13.30;99.90;;;;;;2603357;54;20069;31
2022/10/16 02:42:21;;;;;;;11.40;7.00;;;13.30;99.90;;;;;;2603121;54;20096;31
2022/10/16 02:44:59;;;;;;;8.88;5.90;;;13.30;99.90;;;;;;2621505;46;20016;31
2022/10/16 02:47:38;;;;;;;10.70;6.90;;;13.20;99.90;;;;;;2603273;54;20030;31
2022/10/16 02:50:16;;;;;;;12.75;8.05;;;13.20;99.90;;;;;;2603091;54;20140;31
2022/10/16 02:52:51;;;;;;;11.80;6.75;;;13.50;99.90;;;;;;2603154;54;20030;31
2022/10/16 02:55:27;;;;;;;10.27;7.00;;;13.20;99.90;;;;;;2602883;54;20103;31
2022/10/16 02:58:04;;;;;;;11.02;7.20;;;13.20;99.90;;;;;;2602834;54;20970;31
2022/10/16 03:00:40;;;;;;;9.15;7.35;;;13.20;99.90;;;;;;2603150;54;21010;31
2022/10/16 03:03:19;;;;;;;10.02;6.75;;;13.20;99.90;;;;;;2603087;54;20077;31
2022/10/16 03:05:53;;;;;;;9.10;6.50;;;13.20;99.90;;;;;;2603203;54;20898;31
2022/10/16 03:08:29;;;;;;;9.95;6.90;;;13.20;99.90;;;;;;2602966;54;20056;31
2022/10/16 03:11:04;;;;;;;;;;;13.20;99.90;;;;;;2603332;54;20038;31
2022/10/16 03:13:41;;;;;;;10.73;8.10;;;13.20;99.90;;;;;;2603179;54;19935;31
2022/10/16 03:16:18;;;;;;;12.15;8.45;;;13.20;99.90;;;;;;2621195;47;20839;31
2022/10/16 03:18:55;;;;;;;10.65;8.13;;;13.20;99.90;;;;;;2701687;39;21046;31
2022/10/16 03:21:29;;;;;;;9.45;8.15;;;13.20;99.90;;;;;;2603267;54;20842;31
2022/10/16 03:24:04;;;;;;;10.73;8.38;;;13.10;99.90;;;;;;2621659;47;20038;31
2022/10/16 03:26:41;;;;;;;12.02;8.18;;;13.20;99.90;;;;;;2602904;54;20022;31
2022/10/16 03:29:16;;;;;;;13.15;8.25;;;13.30;99.90;;;;;;2602845;54;19993;31
2022/10/16 03:31:51;;;;;;;10.30;7.20;;;13.20;99.90;;;;;;2602788;54;20030;31
2022/10/16 03:34:31;;;;;;;11.13;8.18;;;13.20;99.90;;;;;;2603616;54;20033;31
2022/10/16 03:37:06;;;;;;;11.75;8.00;;;13.10;99.90;;;;;;2603748;54;20022;31
2022/10/16 03:39:42;;;;;;;9.80;8.23;;;13.10;99.90;;;;;;2603747;54;20023;31
2022/10/16 03:42:18;;;;;;;12.77;7.87;;;13.30;99.90;;;;;;2603694;54;20258;31
2022/10/16 03:44:54;;;;;;;11.57;7.40;;;13.20;99.90;;;;;;2603661;54;20175;31
2022/10/16 03:47:29;;;;;;;10.25;8.20;;;13.20;99.90;;;;;;2603568;54;20033;31
2022/10/16 03:50:10;;;;;;;12.75;8.65;;;13.40;99.90;;;;;;2602858;54;20089;31
2022/10/16 03:52:45;;;;;;;10.35;8.75;;;13.20;99.90;;;;;;2622281;46;20046;31
2022/10/16 03:55:19;;;;;;;14.10;9.33;;;13.30;99.90;;;;;;2603668;54;20026;31
2022/10/16 03:57:55;;;;;;;12.00;8.70;;;13.50;99.90;;;;;;2603756;54;20908;31
2022/10/16 04:00:31;;;;;;;10.67;8.30;;;13.20;99.90;;;;;;2603690;54;20036;31
2022/10/16 04:05:44;;;;;;;9.30;8.02;;;13.30;99.90;;;;;;2603495;54;20051;31
2022/10/16 04:08:19;;;;;;;11.32;8.82;;;13.30;99.90;;;;;;2603626;54;20031;31
2022/10/16 04:10:56;;;;;;;11.98;9.00;;;13.30;99.90;;;;;;2603778;54;20116;31
2022/10/16 04:13:33;;;;;;;13.20;9.30;;;13.40;99.90;;;;;;2603631;54;20905;31
2022/10/16 04:16:09;;;;;;;10.90;9.80;;;13.50;99.90;;;;;;2603784;54;20853;31
2022/10/16 04:18:43;;;;;;;9.48;8.48;;;13.40;99.90;;;;;;2603496;54;20853;31
2022/10/16 04:21:20;;;;;;;10.20;9.20;;;13.40;99.90;;;;;;2603681;54;20812;31
2022/10/16 04:23:57;;;;;;;11.50;9.05;;;13.60;99.90;;;;;;2603568;54;20250;31
2022/10/16 04:26:33;;;;;;;13.20;9.40;;;13.40;99.90;;;;;;2603557;54;20057;31
2022/10/16 04:29:11;;;;;;;11.20;9.70;;;13.40;99.90;;;;;;2603498;54;20293;31
2022/10/16 04:31:46;;;;;;;14.07;10.43;;;13.50;99.90;;;;;;2603678;54;20923;31
2022/10/16 04:34:24;;;;;;;12.63;10.77;;;13.50;99.90;;;;;;2603555;54;20777;31
2022/10/16 04:37:08;;;;;;;16.03;11.47;;;13.50;99.90;;;;;;2603546;54;20060;31
2022/10/16 04:39:44;;;;;;;16.27;12.73;;;13.40;99.90;;;;;;2603610;54;20046;31
2022/10/16 04:42:19;;;;;;;21.63;12.52;;;13.60;99.90;;;;;;2621380;46;20889;31
2022/10/16 04:44:54;;;;;;;14.83;12.10;;;13.40;99.90;;;;;;2621923;46;20030;31
2022/10/16 04:47:30;;;;;;;16.17;11.73;;;13.50;99.90;;;;;;2603522;54;20083;31
2022/10/16 04:50:05;;;;;;;14.88;12.15;;;13.50;99.90;;;;;;2603490;54;20126;31
2022/10/16 04:52:43;;;;;;;12.57;10.75;;;13.50;99.90;;;;;;2621665;46;19980;31
2022/10/16 04:55:18;;;;;;;12.30;10.52;;;13.60;99.90;;;;;;2603720;54;20030;31
2022/10/16 04:57:55;;;;;;;13.35;11.75;;;13.50;99.90;;;;;;2603596;54;20839;31
2022/10/16 05:00:30;;;;;;;14.05;10.70;;;13.60;99.90;;;;;;2603504;54;20814;31
2022/10/16 05:03:07;;;;;;;13.65;11.40;;;13.60;99.90;;;;;;2622159;46;20830;31
2022/10/16 05:05:46;;;;;;;12.45;10.55;;;13.80;99.90;;;;;;2603558;54;20050;31
2022/10/16 05:08:25;;;;;;;14.07;11.27;;;13.60;99.90;;;;;;2702377;39;21038;31
2022/10/16 05:11:05;;;;;;;11.18;9.50;;;13.60;99.90;;;;;;2622094;46;20037;31
2022/10/16 05:13:41;;;;;;;11.60;9.60;;;13.60;99.90;;;;;;2621941;46;20862;31
2022/10/16 05:16:17;;;;;;;11.10;9.90;;;13.50;99.90;;;;;;2603475;54;20047;31
2022/10/16 05:18:52;;;;;;;;;;;13.70;99.90;;;;;;2603520;54;20906;31
2022/10/16 05:21:44;;;;;;;13.43;9.38;;;13.70;99.90;;;;;;2603233;54;20732;31
2022/10/16 05:24:22;;;;;;;9.38;8.38;;;13.60;99.90;;;;;;2603363;54;20855;31
2022/10/16 05:26:57;;;;;;;10.37;9.07;;;13.60;99.90;;;;;;2603369;54;20030;31
2022/10/16 05:29:33;;;;;;;10.25;9.25;;;13.60;99.90;;;;;;2603424;54;20785;31
2022/10/16 05:32:09;;;;;;;13.15;7.80;;;13.60;99.90;;;;;;2603530;54;20026;31
2022/10/16 05:34:44;;;;;;;13.05;9.10;;;13.60;99.90;;;;;;2603228;54;20032;31
2022/10/16 05:37:19;;;;;;;11.07;9.20;;;13.60;99.90;;;;;;2603314;54;20965;31
2022/10/16 05:39:55;;;;;;;9.73;7.80;;;13.90;99.90;;;;;;2621883;46;20037;31
2022/10/16 05:42:34;;;;;;;12.18;8.52;;;13.60;99.90;;;;;;2622084;46;20038;31
2022/10/16 05:45:10;;;;;;;10.00;7.95;;;13.60;99.90;;;;;;2603544;54;20026;31
2022/10/16 05:50:16;;;;;;;12.20;8.90;;;13.60;99.90;;;;;;2603631;54;20842;31
2022/10/16 05:52:52;;;;;;;11.43;8.20;;;13.60;99.90;;;;;;2603296;54;20100;31
2022/10/16 05:55:27;;;;;;;14.60;8.40;;;13.60;99.90;;;;;;2603297;54;20022;31
2022/10/16 05:58:07;;;;;;;8.95;7.85;;;13.50;99.90;;;;;;2621843;46;20235;31
2022/10/16 06:00:44;;;;;;;9.47;8.30;;;13.60;99.90;;;;;;2603286;54;20031;31
2022/10/16 06:03:23;;;;;;;8.35;7.18;;;13.60;99.90;;;;;;2603388;54;20797;31
2022/10/16 06:05:58;;;;;;;11.13;8.27;;;13.50;99.90;;;;;;2603417;54;20052;31
2022/10/16 06:08:33;;;;;;;11.20;7.20;;;13.70;99.90;;;;;;2603370;54;20053;31
2022/10/16 06:11:08;;;;;;;8.10;6.72;;;13.60;99.90;;;;;;2603269;54;20048;31
2022/10/16 06:13:47;;;;;;;9.50;7.67;;;13.70;99.90;;;;;;2621869;46;20956;31
2022/10/16 06:16:22;;;;;;;8.70;7.05;;;13.60;99.90;;;;;;2603222;54;20874;31
2022/10/16 06:18:59;;;;;;;10.85;7.60;;;13.70;99.90;;;;;;2603354;54;20097;31
2022/10/16 06:21:33;;;;;;;10.88;8.43;;;13.70;99.90;;;;;;2603219;54;20032;31
2022/10/16 06:24:10;;;;;;;8.85;7.68;;;13.70;99.90;;;;;;2603134;54;20034;31
2022/10/16 06:26:50;;;;;;;9.85;7.60;;;13.80;99.90;;;;;;2603064;54;20779;31
2022/10/16 06:29:28;;;;;;;9.70;7.15;;;13.80;99.90;;;;;;2603079;54;20038;31
2022/10/16 06:32:05;;;;;;;7.95;7.05;;;13.80;99.90;;;;;;2621773;46;20033;31
2022/10/16 06:34:41;;;;;;;7.83;7.03;;;13.90;99.90;;;;;;2603165;54;20814;31
2022/10/16 06:37:18;;;;;;;8.70;7.57;;;13.90;99.90;;;;;;2621503;46;20866;31
2022/10/16 06:39:52;;;;;;;12.48;8.02;;;14.00;99.90;;;;;;2603036;54;20857;31
2022/10/16 06:42:28;;;;;;;12.55;8.98;;;14.00;99.90;;;;;;2603171;54;20829;31
2022/10/16 06:45:08;;;;;;;9.15;8.23;;;14.10;99.90;;;;;;2602963;54;20022;31
2022/10/16 06:47:42;;;;;;;14.25;8.85;;;14.10;99.90;;;;;;2603290;54;20029;31
2022/10/16 06:50:18;;;;;;;10.05;7.78;;;14.10;99.90;;;;;;2603143;54;20069;31
2022/10/16 06:52:54;;;;;;;10.52;8.55;;;14.20;99.90;;;;;;2603055;54;20908;31
2022/10/16 06:55:32;;;;;;;12.25;8.73;;;14.30;99.90;;;;;;2603303;54;20112;31
2022/10/16 06:58:06;;;;;;;10.00;6.67;;;14.20;99.90;;;;;;2602966;54;20076;31
2022/10/16 07:00:47;;;;;;;9.70;8.60;;;14.30;99.90;;;;;;2621298;47;20273;31
2022/10/16 07:03:23;;;;;;;10.35;8.30;;;14.40;99.90;;;;;;2621554;47;20058;31
2022/10/16 07:05:58;;;;;;;9.10;8.05;;;14.40;99.90;;;;;;2602512;54;20034;31
2022/10/16 07:08:35;;;;;;;9.77;8.07;;;14.50;99.90;;;;;;2603877;54;20810;31
2022/10/16 07:11:10;;;;;;;10.60;8.85;;;14.50;99.90;;;;;;2603804;54;20108;31
2022/10/16 07:13:45;;;;;;;11.55;8.55;;;14.50;99.90;;;;;;2603684;54;20069;31
2022/10/16 07:16:31;;;;;;;9.90;7.68;;;14.60;99.90;;;;;;2604058;54;20029;31
2022/10/16 07:19:07;;;;;;;8.48;7.57;;;14.60;99.90;;;;;;2603646;54;20857;31
2022/10/16 07:21:44;;;;;;;11.15;7.65;;;14.70;99.90;;;;;;2603835;54;20030;31
2022/10/16 07:24:21;;;;;;;8.85;7.38;;;14.70;99.90;;;;;;2603808;54;20081;31
2022/10/16 07:26:56;;;;;;;8.85;7.05;;;14.80;99.90;;;;;;2603748;54;20035;31
2022/10/16 07:29:30;;;;;;;14.77;11.47;;;14.90;99.90;;;;;;2603804;54;20026;31
2022/10/16 07:32:08;;;;;;;11.55;7.45;;;15.10;99.90;;;;;;2603834;54;20038;31
2022/10/16 07:34:45;;;;;;;8.27;6.35;;;15.30;99.90;;;;;;2603806;54;20027;31
2022/10/16 07:37:20;;;;;;;7.15;5.85;;;15.50;99.90;;;;;;2603782;54;20133;31
2022/10/16 07:39:58;;;;;;;10.30;6.35;;;15.90;99.90;;;;;;2603611;54;20037;31
2022/10/16 07:42:31;;;;;;;8.48;5.95;;;16.40;99.90;;;;;;2603581;54;19930;31
2022/10/16 07:45:07;;;;;;;7.15;4.93;;;16.90;99.90;;;;;;2603704;54;20030;31
2022/10/16 07:47:45;;;;;;;10.30;5.13;;;17.20;99.90;;;;;;2602825;54;20042;31
2022/10/16 07:50:19;;;;;;;5.55;4.25;;;17.30;99.90;;;;;;2603802;54;20027;31
2022/10/16 07:52:54;;;;;;;6.78;4.78;;;17.40;99.90;;;;;;2603345;54;20890;31
2022/10/16 07:55:30;;;;;;;5.13;4.57;;;17.40;99.90;;;;;;2603888;54;20093;31
2022/10/16 07:58:06;;;;;;;5.70;4.75;;;17.40;99.90;;;;;;2622282;46;20941;31
2022/10/16 08:00:42;;;;;;;7.72;4.60;;;17.40;99.90;;;;;;2603497;54;20961;31
2022/10/16 08:03:20;;;;;;;7.85;4.85;;;17.30;99.90;;;;;;2603702;54;20030;31
2022/10/16 08:05:57;;;;;;;7.78;4.97;;;17.30;99.90;;;;;;2603789;54;20923;31
2022/10/16 08:08:33;;;;;;;6.45;5.05;;;17.40;99.90;;;;;;2603700;54;20026;31
2022/10/16 08:11:08;;;;;;;5.97;4.93;;;17.30;99.90;;;;;;2603788;54;20057;31
2022/10/16 08:13:43;;;;;;;6.18;5.07;;;17.40;99.90;;;;;;2622028;46;20038;31
2022/10/16 08:16:18;;;;;;;5.80;4.68;;;17.40;99.90;;;;;;2603792;54;20023;31
2022/10/16 08:18:56;;;;;;;6.25;4.78;;;17.50;99.90;;;;;;2603194;54;20121;31
2022/10/16 08:21:33;;;;;;;6.63;4.40;;;17.60;99.90;;;;;;2603549;54;20802;31
2022/10/16 08:24:08;;;;;;;5.50;4.63;;;17.60;99.90;;;;;;2603950;54;20258;31
2022/10/16 08:26:44;;;;;;;5.57;4.72;;;17.70;99.90;;;;;;2622117;46;20034;31
2022/10/16 08:29:19;;;;;;;9.02;4.78;;;17.80;99.90;;;;;;2622331;46;20026;31
2022/10/16 08:31:54;;;;;;;4.85;4.00;;;17.90;99.90;;;;;;2603656;54;20034;31
2022/10/16 08:34:34;;;;;;;6.10;3.80;;;18.10;99.90;;;;;;2603685;54;20906;31
2022/10/16 08:37:11;;;;;;;3.93;3.37;;;18.30;99.90;;;;;;2603624;54;20085;31
2022/10/16 08:39:46;;;;;;;4.80;3.40;;;18.40;99.90;;;;;;2603490;54;20886;31
2022/10/16 08:42:32;;;;;;;7.60;3.60;;;18.60;99.90;;;;;;2603467;54;20085;31
2022/10/16 08:45:39;;;;;;;4.70;3.23;;;18.60;99.90;;;;;;2603664;54;20093;31
2022/10/16 08:48:19;;;;;;;6.80;2.83;;;19.10;99.90;;;;;;2603287;54;20263;31
2022/10/16 08:50:58;;;;;;;5.85;2.50;;;19.40;99.90;;;;;;2603418;54;20030;31
2022/10/16 08:53:36;;;;;;;4.45;3.00;;;19.50;99.90;;;;;;2603646;54;20026;31
2022/10/16 08:56:12;;;;;;;3.60;2.80;;;19.50;99.90;;;;;;2603588;54;20038;31
2022/10/16 08:58:46;;;;;;;5.93;3.07;;;19.60;99.90;;;;;;2603649;54;20026;31
2022/10/16 09:01:43;;;;;;;3.75;2.97;;;19.60;99.90;;;;;;2603311;54;20928;31
2022/10/16 09:04:51;;;;;;;6.07;2.90;;;19.60;99.90;;;;;;2603554;54;20885;31
2022/10/16 09:10:33;;;;;;;5.93;2.80;;;19.50;99.90;;;;;;2622003;46;19935;31
2022/10/16 09:13:14;;;;;;;3.85;2.80;;;19.50;99.90;;;;;;2603199;54;20121;31
2022/10/16 09:15:51;;;;;;;3.92;2.65;;;19.50;99.90;;;;;;2603368;54;20034;31
2022/10/16 09:18:28;;;;;;;3.90;2.80;;;19.40;99.90;;;;;;2603676;54;20026;31
2022/10/16 09:21:10;;;;;;;5.85;2.50;;;19.40;99.90;;;;;;2603572;54;20057;31
2022/10/16 09:23:52;;;;;;;3.60;2.70;;;19.50;99.90;;;;;;2603461;54;19947;31
2022/10/16 09:26:28;;;;;;;3.03;2.55;;;19.50;99.90;;;;;;2702204;39;21030;31
2022/10/16 09:29:04;;;;;;;6.38;2.90;;;19.50;99.90;;;;;;2621944;46;20859;31
2022/10/16 09:31:40;;;;;;;4.55;2.50;;;19.60;99.90;;;;;;2603491;54;20041;31
2022/10/16 09:34:22;;;;;;;3.65;2.40;;;19.70;99.90;;;;;;2603608;54;20158;31
2022/10/16 09:36:58;;;;;;;3.35;2.70;;;19.70;99.90;;;;;;2603331;54;20815;31
2022/10/16 09:39:33;;;;;;;;;;;19.90;99.90;;;;;;2603703;54;20093;31
2022/10/16 09:42:12;;;;;;;2.50;2.10;;;20.10;99.90;;;;;;2603400;54;19941;31
2022/10/16 09:44:53;;;;;;;2.30;1.88;;;20.20;99.90;;;;;;2603575;54;20033;31
2022/10/16 09:47:29;;;;;;;2.75;2.03;;;20.20;99.90;;;;;;2603337;54;20916;31
2022/10/16 09:50:06;;;;;;;4.00;2.30;;;20.40;99.90;;;;;;2603278;54;20061;31
2022/10/16 09:52:45;;;;;;;4.40;2.30;;;20.70;99.90;;;;;;2603102;54;20027;31
2022/10/16 09:55:21;;;;;;;2.67;2.33;;;20.80;99.90;;;;;;2604131;46;20029;31
2022/10/16 09:58:01;;;;;;;2.70;1.92;;;20.90;99.90;;;;;;2602723;54;20034;31
2022/10/16 10:00:37;;;;;;;4.35;2.17;;;21.10;99.90;;;;;;2603316;54;20034;31
2022/10/16 10:03:13;;;;;;;3.55;1.90;;;21.30;99.90;;;;;;2621632;46;20852;31
2022/10/16 10:05:51;;;;;;;2.55;2.10;;;21.50;99.90;;;;;;2603464;54;20030;31
2022/10/16 10:08:26;;;;;;;2.35;2.03;;;21.60;99.90;;;;;;2603218;54;20922;31
2022/10/16 10:11:02;;;;;;;4.70;2.00;;;21.70;99.90;;;;;;2621840;46;20070;31
2022/10/16 10:13:44;;;;;;;3.40;2.20;;;21.70;99.90;;;;;;2603427;54;20917;31
2022/10/16 10:16:28;;;;;;;4.05;2.35;;;21.70;99.90;;;;;;2621995;46;20026;31
2022/10/16 10:19:03;;;;;;;2.33;1.80;;;21.70;99.90;;;;;;2603127;54;20042;31
2022/10/16 10:21:38;;;;;;;4.55;2.00;;;21.60;99.90;;;;;;2603395;54;20026;31
2022/10/16 10:24:15;;;;;;;2.22;1.98;;;21.70;99.90;;;;;;2603323;54;20085;31
2022/10/16 10:26:53;;;;;;;5.80;2.65;;;21.80;99.90;;;;;;2701901;39;21026;31
2022/10/16 10:29:49;;;;;;;5.05;2.30;;;22.00;99.90;;;;;;2603321;54;20886;31
2022/10/16 10:35:38;;;;;;;3.03;1.95;;;22.50;99.90;;;;;;2603309;54;20639;31
2022/10/16 10:38:21;;;;;;;1.97;1.73;;;22.70;99.90;;;;;;2604696;46;20034;31
2022/10/16 10:41:02;;;;;;;2.30;1.85;;;23.00;99.90;;;;;;2602832;54;20038;31
2022/10/16 10:43:46;;;;;;;1.80;1.63;;;23.10;99.90;;;;;;2603192;54;19934;31
2022/10/16 10:46:29;;;;;;;4.10;2.05;;;23.00;99.90;;;;;;2603183;54;20834;31
2022/10/16 10:49:38;;;;;;;3.45;2.05;;;23.00;99.90;;;;;;2621615;46;20146;31
2022/10/16 10:52:25;;;;;;;2.07;1.70;;;23.00;99.90;;;;;;2602912;54;20029;31
2022/10/16 10:55:09;;;;;;;2.00;1.80;;;23.10;99.90;;;;;;2602826;54;20018;31
2022/10/16 10:57:47;;;;;;;2.15;1.75;;;23.20;99.90;;;;;;2603219;54;20951;31
2022/10/16 11:00:24;;;;;;;2.43;1.47;;;23.30;99.90;;;;;;2603455;54;20034;31
2022/10/16 11:03:07;;;;;;;1.90;1.50;;;23.40;99.90;;;;;;2603118;54;20033;31
2022/10/16 11:05:45;;;;;;;3.28;1.52;;;23.40;99.90;;;;;;2603056;54;24877;31
2022/10/16 11:08:27;;;;;;;2.67;1.60;;;23.50;99.90;;;;;;2603064;54;20030;31
2022/10/16 11:11:10;;;;;;;2.28;1.60;;;23.60;99.90;;;;;;2603154;54;20028;31
2022/10/16 11:13:48;;;;;;;2.75;1.50;;;23.70;99.90;;;;;;2603054;54;20116;31
2022/10/16 11:16:25;;;;;;;3.00;1.45;;;23.80;99.90;;;;;;2603062;54;20031;31
2022/10/16 11:19:05;;;;;;;1.88;1.65;;;23.80;99.90;;;;;;2603143;54;20055;31
2022/10/16 11:21:52;;;;;;;4.00;1.80;;;23.80;99.90;;;;;;2603125;54;20042;31
2022/10/16 11:24:33;;;;;;;1.98;1.30;;;23.70;99.90;;;;;;2603145;54;20033;31
2022/10/16 11:27:10;;;;;;;2.35;1.58;;;23.70;99.90;;;;;;2602975;54;20034;31
2022/10/16 11:29:43;;;;;;;2.25;1.85;;;23.70;99.90;;;;;;2603012;54;20926;31
2022/10/16 11:32:25;;;;;;;2.53;1.90;;;23.60;99.90;;;;;;2602902;54;20029;31
2022/10/16 11:34:58;;;;;;;2.10;1.80;;;23.50;99.90;;;;;;2621457;47;20914;31
2022/10/16 11:37:39;;;;;;;2.08;1.77;;;23.40;99.90;;;;;;2602915;54;19934;31
2022/10/16 11:40:22;;;;;;;2.90;1.63;;;23.30;99.90;;;;;;2602835;54;20045;31
2022/10/16 11:42:58;;;;;;;6.03;2.15;;;23.10;99.90;;;;;;2602945;54;20883;31
2022/10/16 11:45:36;;;;;;;1.70;1.60;;;23.00;99.90;;;;;;2603073;54;20031;31
2022/10/16 11:48:15;;;;;;;3.25;1.85;;;22.90;99.90;;;;;;2603171;54;20038;31
2022/10/16 11:50:52;;;;;;;2.00;1.50;;;22.80;99.90;;;;;;2603012;54;20053;31
2022/10/16 11:53:40;;;;;;;2.40;2.00;;;22.80;99.90;;;;;;2603676;54;19934;31
2022/10/16 11:56:15;;;;;;;3.53;2.47;;;22.80;99.90;;;;;;2603952;54;20863;31
2022/10/16 11:58:49;;;;;;;2.75;1.83;;;22.70;99.90;;;;;;2603641;54;20026;31
2022/10/16 12:01:28;;;;;;;3.05;2.00;;;22.70;99.90;;;;;;2603808;54;20116;31
2022/10/16 12:04:16;;;;;;;2.05;1.75;;;22.60;99.90;;;;;;2603851;54;20042;31
2022/10/16 12:06:53;;;;;;;3.35;1.95;;;22.50;99.90;;;;;;2622096;46;20794;31
2022/10/16 12:09:31;;;;;;;3.53;2.08;;;22.50;99.90;;;;;;2622118;46;20085;31
2022/10/16 12:12:07;;;;;;;2.45;1.80;;;22.40;99.90;;;;;;2603878;54;20864;31
2022/10/16 12:14:42;;;;;;;3.20;1.92;;;22.40;99.90;;;;;;2603638;54;20121;31
2022/10/16 12:17:38;;;;;;;3.00;2.03;;;22.30;99.90;;;;;;2702434;39;21046;31
2022/10/16 12:20:27;;;;;;;2.80;2.55;;;22.20;99.90;;;;;;2603837;54;20026;31
2022/10/16 12:23:03;;;;;;;2.60;2.30;;;22.20;99.90;;;;;;2603339;54;20026;31
2022/10/16 12:25:46;;;;;;;2.53;2.30;;;22.10;99.90;;;;;;2603804;54;20093;31
2022/10/16 12:28:23;;;;;;;6.70;2.30;;;22.10;99.90;;;;;;2603729;54;20926;31
2022/10/16 12:30:56;;;;;;;2.65;2.33;;;22.00;99.90;;;;;;2702434;39;21030;31
2022/10/16 12:33:31;;;;;;;3.92;2.47;;;22.00;99.90;;;;;;2603730;54;20078;31
2022/10/16 12:36:06;;;;;;;;;;;21.90;99.90;;;;;;2603834;54;20092;31
2022/10/16 12:38:41;;;;;;;3.10;2.05;;;21.90;99.90;;;;;;2603788;54;19934;31
2022/10/16 12:41:27;;;;;;;3.03;2.38;;;21.90;99.90;;;;;;2603307;54;20162;31
2022/10/16 12:44:01;;;;;;;2.60;2.40;;;21.80;99.90;;;;;;2603759;54;20089;31
2022/10/16 12:46:40;;;;;;;5.63;2.78;;;21.80;99.90;;;;;;2603696;54;20861;31
2022/10/16 12:49:25;;;;;;;3.00;2.70;;;21.70;99.90;;;;;;2603571;54;20169;31
2022/10/16 12:51:59;;;;;;;2.50;2.30;;;21.70;99.90;;;;;;2603835;54;20699;31
2022/10/16 12:54:37;;;;;;;4.30;2.50;;;21.70;99.90;;;;;;2603625;54;20049;31
2022/10/16 12:57:39;;;;;;;3.50;2.40;;;21.70;99.90;;;;;;2603739;54;20923;31
2022/10/16 13:00:18;;;;;;;3.85;2.60;;;21.70;99.90;;;;;;2603355;54;20034;31
2022/10/16 13:03:11;;;;;;;3.90;2.67;;;21.70;99.90;;;;;;2603367;54;20813;31
2022/10/16 13:05:51;;;;;;;3.13;2.83;;;21.70;99.90;;;;;;2603278;54;20805;31
2022/10/16 13:08:33;;;;;;;3.05;2.78;;;21.70;99.90;;;;;;2603538;54;21000;31
2022/10/16 13:11:10;;;;;;;3.55;3.00;;;21.70;99.90;;;;;;2603495;54;20105;31
2022/10/16 13:14:03;;;;;;;3.40;2.95;;;21.50;99.90;;;;;;2603566;54;20030;31
2022/10/16 13:16:48;;;;;;;3.50;3.20;;;21.60;99.90;;;;;;2621809;46;20038;31
2022/10/16 13:19:23;;;;;;;4.07;3.45;;;21.60;99.90;;;;;;2603635;54;20033;31
2022/10/16 13:22:02;;;;;;;4.43;3.10;;;21.60;99.90;;;;;;2603404;54;20916;31
2022/10/16 13:24:49;;;;;;;4.15;3.30;;;21.50;99.90;;;;;;2603694;54;20036;31
2022/10/16 13:27:30;;;;;;;3.40;3.10;;;21.50;99.90;;;;;;2603423;54;20026;31
2022/10/16 13:30:06;;;;;;;3.50;3.20;;;21.50;99.90;;;;;;2603530;54;20068;31
2022/10/16 13:32:43;;;;;;;4.20;3.30;;;21.50;99.90;;;;;;2622021;46;20026;31
2022/10/16 13:35:25;;;;;;;7.00;3.43;;;21.50;99.90;;;;;;2622372;46;20258;31
2022/10/16 13:38:16;;;;;;;3.95;3.30;;;21.50;99.90;;;;;;2603511;54;20027;31
2022/10/16 13:40:55;;;;;;;3.45;3.10;;;21.50;99.90;;;;;;2603438;54;20927;31
2022/10/16 13:43:31;;;;;;;3.17;2.88;;;21.50;99.90;;;;;;2603683;54;20038;31
2022/10/16 13:46:07;;;;;;;4.37;2.90;;;21.60;99.90;;;;;;2603675;54;20031;31
2022/10/16 13:48:43;;;;;;;;;;;21.50;99.90;;;;;;2603832;54;20030;31
2022/10/16 13:51:18;;;;;;;3.28;2.97;;;21.50;99.90;;;;;;2603406;54;19941;31
2022/10/16 13:53:52;;;;;;;3.30;2.90;;;21.50;99.90;;;;;;2603261;54;20866;31
2022/10/16 13:56:28;;;;;;;3.78;3.00;;;21.60;99.90;;;;;;2603238;54;20822;31
2022/10/16 13:59:03;;;;;;;5.30;3.38;;;21.50;99.90;;;;;;2603313;54;20115;31
2022/10/16 14:01:38;;;;;;;3.38;3.03;;;21.50;99.90;;;;;;2622041;46;20089;31